createdAt,value
2022-12-17T00:02:12.134Z,-0.47
2022-12-17T00:04:32.890Z,-0.53
2022-12-17T00:06:56.582Z,-0.57
2022-12-17T00:09:20.021Z,-0.65
2022-12-17T00:11:40.540Z,-0.69
2022-12-17T00:14:04.043Z,-0.74
2022-12-17T00:16:25.186Z,-0.80
2022-12-17T00:18:45.180Z,-0.85
2022-12-17T00:21:17.196Z,-0.92
2022-12-17T00:23:39.728Z,-0.96
2022-12-17T00:26:00.180Z,-1.02
2022-12-17T00:28:20.487Z,-1.05
2022-12-17T00:30:40.826Z,-1.09
2022-12-17T00:33:01.241Z,-1.13
2022-12-17T00:35:21.937Z,-1.17
2022-12-17T00:37:45.282Z,-1.22
2022-12-17T00:40:05.457Z,-1.28
2022-12-17T00:42:25.690Z,-1.32
2022-12-17T00:44:46.104Z,-1.34
2022-12-17T00:47:07.910Z,-1.39
2022-12-17T00:49:27.935Z,-1.40
2022-12-17T00:51:49.498Z,-1.44
2022-12-17T00:54:09.851Z,-1.45
2022-12-17T00:56:30.254Z,-1.51
2022-12-17T00:58:50.788Z,-1.54
2022-12-17T01:01:20.467Z,-1.60
2022-12-17T01:03:40.850Z,-1.63
2022-12-17T01:06:01.297Z,-1.68
2022-12-17T01:08:26.745Z,-1.71
2022-12-17T01:10:47.112Z,-1.75
2022-12-17T01:13:07.499Z,-1.80
2022-12-17T01:15:28.115Z,-1.84
2022-12-17T01:17:48.490Z,-1.89
2022-12-17T01:20:08.930Z,-1.95
2022-12-17T01:22:29.169Z,-1.99
2022-12-17T01:24:52.419Z,-2.01
2022-12-17T01:27:12.847Z,-2.04
2022-12-17T01:29:33.149Z,-2.06
2022-12-17T01:31:53.329Z,-2.11
2022-12-17T01:34:13.578Z,-2.13
2022-12-17T01:36:33.776Z,-2.15
2022-12-17T01:38:54.078Z,-2.19
2022-12-17T01:41:16.503Z,-2.23
2022-12-17T01:43:54.244Z,-2.27
2022-12-17T01:46:14.351Z,-2.30
2022-12-17T01:48:36.493Z,-2.33
2022-12-17T01:51:00.813Z,-2.38
2022-12-17T01:53:24.093Z,-2.43
2022-12-17T01:55:44.156Z,-2.47
2022-12-17T01:58:05.345Z,-2.52
2022-12-17T02:00:28.546Z,-2.55
2022-12-17T02:02:52.601Z,-2.61
2022-12-17T02:05:15.804Z,-2.66
2022-12-17T02:07:52.977Z,-2.73
2022-12-17T02:10:32.377Z,-2.80
2022-12-17T02:13:01.032Z,-2.86
2022-12-17T02:15:36.184Z,-2.92
2022-12-17T02:18:01.979Z,-2.99
2022-12-17T02:20:38.224Z,-3.04
2022-12-17T02:23:26.975Z,-3.10
2022-12-17T02:25:58.571Z,-3.15
2022-12-17T02:28:20.244Z,-3.19
2022-12-17T02:30:40.614Z,-3.23
2022-12-17T02:33:08.711Z,-3.27
2022-12-17T02:35:41.259Z,-3.31
2022-12-17T02:38:26.213Z,-3.35
2022-12-17T02:40:46.954Z,-3.39
2022-12-17T02:43:07.981Z,-3.42
2022-12-17T02:45:34.666Z,-3.45
2022-12-17T02:47:58.252Z,-3.47
2022-12-17T02:50:18.407Z,-3.51
2022-12-17T02:52:40.253Z,-3.54
2022-12-17T02:55:00.322Z,-3.57
2022-12-17T02:57:21.731Z,-3.61
2022-12-17T02:59:43.190Z,-3.63
2022-12-17T03:02:08.940Z,-3.67
2022-12-17T03:04:29.458Z,-3.70
2022-12-17T03:06:49.559Z,-3.74
2022-12-17T03:09:09.844Z,-3.75
2022-12-17T03:11:30.260Z,-3.79
2022-12-17T03:13:50.692Z,-3.80
2022-12-17T03:16:10.748Z,-3.82
2022-12-17T03:18:34.204Z,-3.86
2022-12-17T03:20:57.230Z,-3.88
2022-12-17T03:23:28.323Z,-3.90
2022-12-17T03:25:49.422Z,-3.91
2022-12-17T03:28:09.619Z,-3.96
2022-12-17T03:30:34.556Z,-3.98
2022-12-17T03:32:57.582Z,-4.01
2022-12-17T03:35:17.927Z,-4.02
2022-12-17T03:37:38.486Z,-4.06
2022-12-17T03:39:58.749Z,-4.10
2022-12-17T03:42:19.965Z,-4.14
2022-12-17T03:44:40.494Z,-4.18
2022-12-17T03:47:00.782Z,-4.21
2022-12-17T03:49:21.343Z,-4.24
2022-12-17T03:51:42.726Z,-4.29
2022-12-17T03:54:04.581Z,-4.32
2022-12-17T03:56:24.871Z,-4.36
2022-12-17T03:58:45.228Z,-4.39
2022-12-17T04:01:12.353Z,-4.42
2022-12-17T04:03:33.377Z,-4.46
2022-12-17T04:05:54.196Z,-4.50
2022-12-17T04:08:14.207Z,-4.53
2022-12-17T04:10:34.758Z,-4.57
2022-12-17T04:12:54.759Z,-4.61
2022-12-17T04:15:15.082Z,-4.66
2022-12-17T04:17:35.338Z,-4.68
2022-12-17T04:19:57.607Z,-4.71
2022-12-17T04:22:19.126Z,-4.74
2022-12-17T04:24:39.095Z,-4.78
2022-12-17T04:26:59.555Z,-4.81
2022-12-17T04:29:19.950Z,-4.84
2022-12-17T04:31:40.247Z,-4.87
2022-12-17T04:34:00.392Z,-4.90
2022-12-17T04:36:23.774Z,-4.93
2022-12-17T04:38:51.951Z,-4.97
2022-12-17T04:41:19.640Z,-5.00
2022-12-17T04:43:41.748Z,-5.02
2022-12-17T04:46:02.195Z,-5.05
2022-12-17T04:48:24.928Z,-5.09
2022-12-17T04:50:45.229Z,-5.11
2022-12-17T04:53:08.347Z,-5.14
2022-12-17T04:55:28.510Z,-5.17
2022-12-17T04:57:48.707Z,-5.20
2022-12-17T05:00:11.924Z,-5.21
2022-12-17T05:02:32.036Z,-5.22
2022-12-17T05:04:52.283Z,-5.24
2022-12-17T05:07:12.716Z,-5.26
2022-12-17T05:09:33.234Z,-5.27
2022-12-17T05:11:53.518Z,-5.28
2022-12-17T05:14:13.790Z,-5.30
2022-12-17T05:16:34.145Z,-5.32
2022-12-17T05:18:54.399Z,-5.35
2022-12-17T05:21:16.931Z,-5.35
2022-12-17T05:23:37.562Z,-5.37
2022-12-17T05:25:58.165Z,-5.39
2022-12-17T05:28:18.190Z,-5.40
2022-12-17T05:30:38.603Z,-5.43
2022-12-17T05:32:59.119Z,-5.47
2022-12-17T05:35:19.381Z,-5.48
2022-12-17T05:37:44.470Z,-5.52
2022-12-17T05:40:09.234Z,-5.54
2022-12-17T05:42:32.324Z,-5.56
2022-12-17T05:44:52.525Z,-5.58
2022-12-17T05:47:12.748Z,-5.59
2022-12-17T05:49:32.999Z,-5.63
2022-12-17T05:51:53.315Z,-5.67
2022-12-17T05:54:13.577Z,-5.69
2022-12-17T05:56:33.738Z,-5.73
2022-12-17T05:58:57.343Z,-5.75
2022-12-17T06:01:20.006Z,-5.77
2022-12-17T06:03:40.913Z,-5.81
2022-12-17T06:06:01.688Z,-5.85
2022-12-17T06:08:24.063Z,-5.88
2022-12-17T06:10:45.112Z,-5.90
2022-12-17T06:13:16.898Z,-5.93
2022-12-17T06:15:37.323Z,-5.92
2022-12-17T06:17:57.253Z,-5.90
2022-12-17T06:20:17.650Z,-5.89
2022-12-17T06:22:37.774Z,-5.90
2022-12-17T06:24:57.785Z,-5.90
2022-12-17T06:27:18.256Z,-5.91
2022-12-17T06:29:43.058Z,-5.93
2022-12-17T06:32:05.920Z,-5.94
2022-12-17T06:34:26.195Z,-5.95
2022-12-17T06:36:46.494Z,-5.98
2022-12-17T06:39:06.796Z,-6.00
2022-12-17T06:41:27.483Z,-6.02
2022-12-17T06:43:47.767Z,-6.03
2022-12-17T06:46:10.729Z,-6.04
2022-12-17T06:48:30.920Z,-6.04
2022-12-17T06:50:50.840Z,-6.03
2022-12-17T06:53:18.664Z,-6.04
2022-12-17T06:55:38.928Z,-6.04
2022-12-17T06:57:59.285Z,-6.05
2022-12-17T07:00:23.213Z,-6.04
2022-12-17T07:02:43.734Z,-6.03
2022-12-17T07:05:13.117Z,-6.04
2022-12-17T07:07:36.637Z,-6.05
2022-12-17T07:09:57.165Z,-6.04
2022-12-17T07:12:17.714Z,-6.04
2022-12-17T07:14:37.955Z,-6.06
2022-12-17T07:16:58.009Z,-6.07
2022-12-17T07:19:21.395Z,-6.08
2022-12-17T07:21:44.100Z,-6.11
2022-12-17T07:24:04.299Z,-6.12
2022-12-17T07:26:24.630Z,-6.13
2022-12-17T07:28:44.881Z,-6.14
2022-12-17T07:31:05.269Z,-6.15
2022-12-17T07:33:26.419Z,-6.17
2022-12-17T07:35:46.904Z,-6.17
2022-12-17T07:38:07.256Z,-6.13
2022-12-17T07:40:30.764Z,-6.12
2022-12-17T07:42:50.907Z,-6.08
2022-12-17T07:45:10.730Z,-6.08
2022-12-17T07:47:31.346Z,-6.07
2022-12-17T07:49:55.184Z,-6.08
2022-12-17T07:52:15.805Z,-6.08
2022-12-17T07:54:36.038Z,-6.07
2022-12-17T07:56:56.349Z,-6.07
2022-12-17T07:59:16.990Z,-6.05
2022-12-17T08:01:37.192Z,-6.04
2022-12-17T08:04:03.333Z,-6.03
2022-12-17T08:06:23.842Z,-6.02
2022-12-17T08:08:44.129Z,-5.99
2022-12-17T08:11:14.557Z,-6.00
2022-12-17T08:13:35.578Z,-5.98
2022-12-17T08:15:59.513Z,-5.97
2022-12-17T08:18:26.670Z,-5.93
2022-12-17T08:20:47.242Z,-5.90
2022-12-17T08:23:07.577Z,-5.90
2022-12-17T08:25:28.585Z,-5.87
2022-12-17T08:27:49.287Z,-5.83
2022-12-17T08:30:09.643Z,-5.77
2022-12-17T08:32:30.581Z,-5.74
2022-12-17T08:34:53.414Z,-5.68
2022-12-17T08:37:13.619Z,-5.61
2022-12-17T08:39:34.077Z,-5.56
2022-12-17T08:41:56.605Z,-5.50
2022-12-17T08:44:18.814Z,-5.45
2022-12-17T08:46:40.563Z,-5.41
2022-12-17T08:49:00.861Z,-5.37
2022-12-17T08:51:20.984Z,-5.33
2022-12-17T08:53:41.822Z,-5.29
2022-12-17T08:56:02.168Z,-5.25
2022-12-17T08:58:22.732Z,-5.21
2022-12-17T09:00:45.168Z,-5.19
2022-12-17T09:03:06.661Z,-5.14
2022-12-17T09:05:27.911Z,-5.11
2022-12-17T09:07:48.383Z,-5.08
2022-12-17T09:10:08.769Z,-5.04
2022-12-17T09:12:29.488Z,-5.01
2022-12-17T09:14:49.927Z,-4.96
2022-12-17T09:17:10.520Z,-4.94
2022-12-17T09:19:31.184Z,-4.88
2022-12-17T09:22:03.738Z,-4.86
2022-12-17T09:24:24.236Z,-4.81
2022-12-17T09:26:44.133Z,-4.77
2022-12-17T09:29:04.597Z,-4.73
2022-12-17T09:31:24.875Z,-4.71
2022-12-17T09:33:45.124Z,-4.66
2022-12-17T09:36:07.944Z,-4.61
2022-12-17T09:38:31.471Z,-4.55
2022-12-17T09:40:51.722Z,-4.52
2022-12-17T09:43:21.028Z,-4.47
2022-12-17T09:45:49.206Z,-4.40
2022-12-17T09:48:32.626Z,-4.33
2022-12-17T09:50:53.215Z,-4.28
2022-12-17T09:53:13.344Z,-4.21
2022-12-17T09:55:44.318Z,-4.16
2022-12-17T09:58:07.555Z,-4.09
2022-12-17T10:00:41.352Z,-4.03
2022-12-17T10:03:02.361Z,-3.97
2022-12-17T10:05:26.101Z,-3.92
2022-12-17T10:07:56.084Z,-3.83
2022-12-17T10:10:26.258Z,-3.78
2022-12-17T10:12:46.547Z,-3.71
2022-12-17T10:15:06.786Z,-3.65
2022-12-17T10:17:40.967Z,-3.60
2022-12-17T10:20:09.433Z,-3.52
2022-12-17T10:22:36.846Z,-3.46
2022-12-17T10:25:03.780Z,-3.39
2022-12-17T10:27:29.050Z,-3.33
2022-12-17T10:29:50.558Z,-3.26
2022-12-17T10:32:17.625Z,-3.17
2022-12-17T10:34:41.804Z,-3.12
2022-12-17T10:37:08.245Z,-3.06
2022-12-17T10:39:41.949Z,-2.99
2022-12-17T10:42:02.450Z,-2.89
2022-12-17T10:44:48.204Z,-2.84
2022-12-17T10:47:15.406Z,-2.77
2022-12-17T10:49:43.646Z,-2.70
2022-12-17T10:52:11.129Z,-2.64
2022-12-17T10:54:50.025Z,-2.55
2022-12-17T10:57:16.353Z,-2.50
2022-12-17T10:59:57.633Z,-2.42
2022-12-17T11:02:18.424Z,-2.35
2022-12-17T11:04:46.358Z,-2.28
2022-12-17T11:07:10.566Z,-2.22
2022-12-17T11:09:55.274Z,-2.17
2022-12-17T11:12:15.654Z,-2.09
2022-12-17T11:14:36.127Z,-2.02
2022-12-17T11:17:08.134Z,-1.96
2022-12-17T11:19:28.416Z,-1.89
2022-12-17T11:22:12.752Z,-1.82
2022-12-17T11:24:46.400Z,-1.79
2022-12-17T11:27:10.885Z,-1.70
2022-12-17T11:29:32.966Z,-1.66
2022-12-17T11:32:14.566Z,-1.57
2022-12-17T11:34:50.114Z,-1.50
2022-12-17T11:37:22.393Z,-1.42
2022-12-17T11:39:55.407Z,-1.34
2022-12-17T11:42:46.322Z,-1.29
2022-12-17T11:45:25.351Z,-1.20
2022-12-17T11:48:07.198Z,-1.14
2022-12-17T11:50:48.086Z,-1.10
2022-12-17T11:53:28.237Z,-1.04
2022-12-17T11:56:19.909Z,-0.98
2022-12-17T11:58:52.174Z,-0.92
2022-12-17T12:01:30.740Z,-0.87
2022-12-17T12:04:17.289Z,-0.79
2022-12-17T12:07:07.037Z,-0.63
2022-12-17T12:09:35.976Z,-0.62
2022-12-17T12:12:11.717Z,-0.52
2022-12-17T12:14:46.294Z,-0.52
2022-12-17T12:17:25.526Z,-0.44
2022-12-17T12:20:29.003Z,-0.34
2022-12-17T12:23:20.183Z,-0.28
2022-12-17T12:25:43.609Z,-0.22
2022-12-17T12:28:25.136Z,-0.18
2022-12-17T12:30:59.570Z,-0.14
2022-12-17T12:33:44.954Z,-0.07
2022-12-17T12:36:05.943Z,0.00
2022-12-17T12:38:39.484Z,0.07
2022-12-17T12:41:13.640Z,0.08
2022-12-17T12:43:45.502Z,0.12
2022-12-17T12:46:27.898Z,0.17
2022-12-17T12:49:03.650Z,0.21
2022-12-17T12:51:45.879Z,0.26
2022-12-17T12:54:20.538Z,0.29
2022-12-17T12:56:52.787Z,0.34
2022-12-17T12:59:14.833Z,0.43
2022-12-17T13:01:35.888Z,0.43
2022-12-17T13:04:02.311Z,0.48
2022-12-17T13:06:04.535Z,0.52
2022-12-17T13:08:23.104Z,0.54
2022-12-17T13:10:30.140Z,0.56
2022-12-17T13:12:45.383Z,0.58
2022-12-17T13:15:09.774Z,0.66
2022-12-17T13:17:17.306Z,0.74
2022-12-17T13:19:35.690Z,0.78
2022-12-17T13:21:37.489Z,0.82
2022-12-17T13:23:43.358Z,0.84
2022-12-17T13:25:45.019Z,0.91
2022-12-17T13:27:47.144Z,0.99
2022-12-17T13:29:54.488Z,0.99
2022-12-17T13:32:03.301Z,1.05
2022-12-17T13:34:25.923Z,1.02
2022-12-17T13:36:34.780Z,1.11
2022-12-17T13:38:57.013Z,1.12
2022-12-17T13:41:10.516Z,1.16
2022-12-17T13:43:18.987Z,1.16
2022-12-17T13:45:29.074Z,1.21
2022-12-17T13:47:35.567Z,1.33
2022-12-17T13:49:40.424Z,1.37
2022-12-17T13:51:45.089Z,1.38
2022-12-17T13:53:58.342Z,1.42
2022-12-17T13:56:03.491Z,1.42
2022-12-17T13:58:08.190Z,1.40
2022-12-17T14:00:23.772Z,1.42
2022-12-17T14:02:28.959Z,1.41
2022-12-17T14:04:33.958Z,1.44
2022-12-17T14:06:38.291Z,1.46
2022-12-17T14:08:43.223Z,1.46
2022-12-17T14:10:52.483Z,1.47
2022-12-17T14:13:08.062Z,1.50
2022-12-17T14:15:24.393Z,1.52
2022-12-17T14:17:37.639Z,1.50
2022-12-17T14:19:39.942Z,1.51
2022-12-17T14:21:45.761Z,1.50
2022-12-17T14:23:50.573Z,1.49
2022-12-17T14:25:53.162Z,1.50
2022-12-17T14:28:00.964Z,1.48
2022-12-17T14:30:20.354Z,1.44
2022-12-17T14:32:32.254Z,1.42
2022-12-17T14:34:43.764Z,1.40
2022-12-17T14:36:57.086Z,1.38
2022-12-17T14:39:01.492Z,1.35
2022-12-17T14:41:29.843Z,1.32
2022-12-17T14:43:34.371Z,1.29
2022-12-17T14:45:56.109Z,1.26
2022-12-17T14:48:00.198Z,1.24
2022-12-17T14:50:14.029Z,1.20
2022-12-17T14:52:31.332Z,1.17
2022-12-17T14:54:33.383Z,1.14
2022-12-17T14:56:34.896Z,1.12
2022-12-17T14:58:45.617Z,1.06
2022-12-17T15:00:59.767Z,1.03
2022-12-17T15:03:01.610Z,1.01
2022-12-17T15:05:03.831Z,0.99
2022-12-17T15:07:10.979Z,0.96
2022-12-17T15:09:16.572Z,0.92
2022-12-17T15:11:20.934Z,0.88
2022-12-17T15:13:22.669Z,0.83
2022-12-17T15:15:24.374Z,0.77
2022-12-17T15:17:28.944Z,0.71
2022-12-17T15:19:31.042Z,0.68
2022-12-17T15:21:32.811Z,0.65
2022-12-17T15:23:41.087Z,0.61
2022-12-17T15:25:46.664Z,0.55
2022-12-17T15:27:48.672Z,0.49
2022-12-17T15:29:50.393Z,0.45
2022-12-17T15:31:51.952Z,0.40
2022-12-17T15:33:56.558Z,0.35
2022-12-17T15:35:59.280Z,0.28
2022-12-17T15:38:01.101Z,0.24
2022-12-17T15:40:06.207Z,0.18
2022-12-17T15:42:29.034Z,0.14
2022-12-17T15:44:30.651Z,0.08
2022-12-17T15:46:35.105Z,0.03
2022-12-17T15:48:37.038Z,-0.03
2022-12-17T15:50:39.688Z,-0.06
2022-12-17T15:52:41.476Z,-0.13
2022-12-17T15:54:43.143Z,-0.17
2022-12-17T15:56:52.604Z,-0.24
2022-12-17T15:58:58.839Z,-0.29
2022-12-17T16:01:00.759Z,-0.33
2022-12-17T16:03:02.444Z,-0.38
2022-12-17T16:05:04.617Z,-0.45
2022-12-17T16:07:06.128Z,-0.50
2022-12-17T16:09:07.992Z,-0.55
2022-12-17T16:11:11.856Z,-0.61
2022-12-17T16:13:13.523Z,-0.67
2022-12-17T16:15:15.962Z,-0.72
2022-12-17T16:17:17.641Z,-0.76
2022-12-17T16:19:22.442Z,-0.80
2022-12-17T16:21:24.120Z,-0.84
2022-12-17T16:23:25.660Z,-0.90
2022-12-17T16:25:27.642Z,-0.96
2022-12-17T16:27:29.446Z,-1.01
2022-12-17T16:29:31.105Z,-1.03
2022-12-17T16:31:33.463Z,-1.08
2022-12-17T16:33:37.872Z,-1.05
2022-12-17T16:35:39.575Z,-1.09
2022-12-17T16:37:41.215Z,-1.14
2022-12-17T16:39:58.266Z,-1.21
2022-12-17T16:42:02.023Z,-1.30
2022-12-17T16:44:04.911Z,-1.35
2022-12-17T16:46:24.765Z,-1.42
2022-12-17T16:48:26.442Z,-1.47
2022-12-17T16:50:33.477Z,-1.52
2022-12-17T16:52:35.365Z,-1.54
2022-12-17T16:54:37.098Z,-1.61
2022-12-17T16:56:40.862Z,-1.67
2022-12-17T16:58:42.908Z,-1.72
2022-12-17T17:00:46.471Z,-1.76
2022-12-17T17:02:53.083Z,-1.80
2022-12-17T17:04:55.161Z,-1.84
2022-12-17T17:06:57.749Z,-1.88
2022-12-17T17:08:59.418Z,-1.95
2022-12-17T17:11:11.023Z,-2.00
2022-12-17T17:13:13.065Z,-2.02
2022-12-17T17:15:14.754Z,-2.08
2022-12-17T17:17:16.350Z,-2.10
2022-12-17T17:19:19.762Z,-2.15
2022-12-17T17:21:31.130Z,-2.22
2022-12-17T17:23:32.727Z,-2.21
2022-12-17T17:25:57.416Z,-2.28
2022-12-17T17:27:57.349Z,-2.34
2022-12-17T17:30:03.272Z,-2.37
2022-12-17T17:32:13.928Z,-2.42
2022-12-17T17:34:15.980Z,-2.45
2022-12-17T17:36:20.918Z,-2.51
2022-12-17T17:38:22.527Z,-2.55
2022-12-17T17:40:24.149Z,-2.60
2022-12-17T17:42:25.790Z,-2.61
2022-12-17T17:44:27.426Z,-2.64
2022-12-17T17:46:30.107Z,-2.65
2022-12-17T17:48:35.803Z,-2.68
2022-12-17T17:50:37.678Z,-2.71
2022-12-17T17:52:39.900Z,-2.73
2022-12-17T17:54:41.983Z,-2.77
2022-12-17T17:56:46.832Z,-2.80
2022-12-17T17:58:51.329Z,-2.83
2022-12-17T18:00:53.000Z,-2.85
2022-12-17T18:02:54.972Z,-2.87
2022-12-17T18:04:58.541Z,-2.92
2022-12-17T18:09:30.235Z,-2.99
2022-12-17T18:11:49.373Z,-3.04
2022-12-17T18:13:57.221Z,-3.09
2022-12-17T18:16:02.175Z,-3.13
2022-12-17T18:18:05.531Z,-3.16
2022-12-17T18:20:09.985Z,-3.21
2022-12-17T18:22:11.613Z,-3.24
2022-12-17T18:24:18.873Z,-3.27
2022-12-17T18:26:23.100Z,-3.31
2022-12-17T18:28:25.067Z,-3.31
2022-12-17T18:30:26.707Z,-3.34
2022-12-17T18:32:28.330Z,-3.36
2022-12-17T18:34:29.869Z,-3.39
2022-12-17T18:36:38.484Z,-3.43
2022-12-17T18:38:40.550Z,-3.46
2022-12-17T18:40:42.319Z,-3.48
2022-12-17T18:43:03.637Z,-3.51
2022-12-17T18:45:05.831Z,-3.56
2022-12-17T18:47:08.739Z,-3.61
2022-12-17T18:49:12.763Z,-3.63
2022-12-17T18:51:14.500Z,-3.66
2022-12-17T18:53:16.509Z,-3.70
2022-12-17T18:55:18.513Z,-3.71
2022-12-17T18:57:22.022Z,-3.76
2022-12-17T18:59:29.004Z,-3.81
2022-12-17T19:01:35.031Z,-3.82
2022-12-17T19:03:36.639Z,-3.85
2022-12-17T19:05:45.726Z,-3.89
2022-12-17T19:07:48.206Z,-3.91
2022-12-17T19:09:50.947Z,-3.94
2022-12-17T19:11:53.770Z,-3.98
2022-12-17T19:13:56.937Z,-4.02
2022-12-17T19:16:06.519Z,-4.08
2022-12-17T19:18:08.385Z,-4.10
2022-12-17T19:20:10.315Z,-4.11
2022-12-17T19:22:14.641Z,-4.11
2022-12-17T19:24:17.620Z,-4.12
2022-12-17T19:26:20.927Z,-4.15
2022-12-17T19:28:22.962Z,-4.18
2022-12-17T19:30:24.487Z,-4.19
2022-12-17T19:32:25.987Z,-4.21
2022-12-17T19:34:28.336Z,-4.22
2022-12-17T19:36:31.747Z,-4.27
2022-12-17T19:38:36.022Z,-4.32
2022-12-17T19:40:38.027Z,-4.35
2022-12-17T19:42:39.889Z,-4.37
2022-12-17T19:44:51.476Z,-4.40
2022-12-17T19:46:53.776Z,-4.42
2022-12-17T19:48:57.371Z,-4.42
2022-12-17T19:50:59.949Z,-4.42
2022-12-17T19:53:01.701Z,-4.43
2022-12-17T19:55:04.733Z,-4.44
2022-12-17T19:57:06.313Z,-4.42
2022-12-17T19:59:10.802Z,-4.43
2022-12-17T20:01:17.940Z,-4.44
2022-12-17T20:03:22.405Z,-4.43
2022-12-17T20:05:24.138Z,-4.44
2022-12-17T20:07:25.872Z,-4.46
2022-12-17T20:09:27.718Z,-4.46
2022-12-17T20:11:35.627Z,-4.50
2022-12-17T20:13:37.466Z,-4.53
2022-12-17T20:15:39.045Z,-4.55
2022-12-17T20:17:40.670Z,-4.57
2022-12-17T20:19:43.628Z,-4.58
2022-12-17T20:21:46.178Z,-4.62
2022-12-17T20:23:50.480Z,-4.67
2022-12-17T20:26:05.656Z,-4.72
2022-12-17T20:28:09.757Z,-4.72
2022-12-17T20:30:14.934Z,-4.76
2022-12-17T20:32:19.599Z,-4.79
2022-12-17T20:34:21.716Z,-4.82
2022-12-17T20:36:26.052Z,-4.85
2022-12-17T20:38:27.802Z,-4.86
2022-12-17T20:40:29.554Z,-4.90
2022-12-17T20:42:31.357Z,-4.90
2022-12-17T20:44:33.130Z,-4.93
2022-12-17T20:46:36.770Z,-4.93
2022-12-17T20:48:40.857Z,-4.95
2022-12-17T20:50:46.288Z,-4.97
2022-12-17T20:52:47.956Z,-4.99
2022-12-17T20:54:49.666Z,-5.04
2022-12-17T20:56:51.237Z,-5.04
2022-12-17T20:59:05.363Z,-5.08
2022-12-17T21:01:13.907Z,-5.09
2022-12-17T21:03:15.720Z,-5.10
2022-12-17T21:05:18.156Z,-5.14
2022-12-17T21:07:27.505Z,-5.17
2022-12-17T21:09:29.148Z,-5.19
2022-12-17T21:11:34.235Z,-5.21
2022-12-17T21:13:37.188Z,-5.24
2022-12-17T21:15:39.127Z,-5.27
2022-12-17T21:17:40.878Z,-5.27
2022-12-17T21:19:45.746Z,-5.30
2022-12-17T21:21:47.530Z,-5.33
2022-12-17T21:23:49.854Z,-5.35
2022-12-17T21:26:08.836Z,-5.38
2022-12-17T21:28:12.179Z,-5.38
2022-12-17T21:30:14.048Z,-5.39
2022-12-17T21:32:18.647Z,-5.43
2022-12-17T21:34:23.130Z,-5.43
2022-12-17T21:36:26.486Z,-5.43
2022-12-17T21:38:29.194Z,-5.43
2022-12-17T21:40:30.848Z,-5.44
2022-12-17T21:42:51.298Z,-5.44
2022-12-17T21:44:52.911Z,-5.44
2022-12-17T21:46:54.716Z,-5.45
2022-12-17T21:48:58.810Z,-5.46
2022-12-17T21:51:03.403Z,-5.47
2022-12-17T21:53:09.098Z,-5.49
2022-12-17T21:55:10.668Z,-5.49
2022-12-17T21:57:12.751Z,-5.48
2022-12-17T21:59:15.542Z,-5.50
2022-12-17T22:01:27.011Z,-5.53
2022-12-17T22:03:28.646Z,-5.55
2022-12-17T22:05:30.313Z,-5.54
2022-12-17T22:07:39.443Z,-5.57
2022-12-17T22:10:25.732Z,-5.58
2022-12-17T22:12:30.175Z,-5.61
2022-12-17T22:14:31.632Z,-5.61
2022-12-17T22:16:42.145Z,-5.64
2022-12-17T22:18:47.120Z,-5.66
2022-12-17T22:20:59.860Z,-5.70
2022-12-17T22:23:01.738Z,-5.69
2022-12-17T22:25:08.225Z,-5.71
2022-12-17T22:27:13.251Z,-5.71
2022-12-17T22:29:40.571Z,-5.74
2022-12-17T22:32:03.232Z,-5.78
2022-12-17T22:35:02.077Z,-5.83
2022-12-17T22:39:15.766Z,-5.84
2022-12-17T22:42:29.000Z,-5.87
2022-12-17T22:44:48.774Z,-5.89
2022-12-17T22:44:51.616Z,-5.93
2022-12-17T22:46:29.954Z,-5.93
2022-12-17T22:48:40.602Z,-5.96
2022-12-17T22:50:55.198Z,-5.98
2022-12-17T22:53:08.262Z,-6.01
2022-12-17T22:55:13.163Z,-6.03
2022-12-17T22:57:35.180Z,-6.05
2022-12-17T22:59:37.202Z,-6.04
2022-12-17T23:01:39.163Z,-6.07
2022-12-17T23:03:41.278Z,-6.09
2022-12-17T23:05:43.317Z,-6.10
2022-12-17T23:07:47.766Z,-6.12
2022-12-17T23:09:49.508Z,-6.13
2022-12-17T23:11:51.153Z,-6.13
2022-12-17T23:13:54.337Z,-6.15
2022-12-17T23:15:56.942Z,-6.16
2022-12-17T23:18:07.819Z,-6.19
2022-12-17T23:20:11.087Z,-6.22
2022-12-17T23:22:21.786Z,-6.23
2022-12-17T23:24:23.783Z,-6.26
2022-12-17T23:26:31.487Z,-6.28
2022-12-17T23:28:33.074Z,-6.28
2022-12-17T23:30:36.684Z,-6.29
2022-12-17T23:32:38.578Z,-6.31
2022-12-17T23:34:40.238Z,-6.30
2022-12-17T23:36:41.969Z,-6.30
2022-12-17T23:38:45.138Z,-6.30
2022-12-17T23:40:46.851Z,-6.32
2022-12-17T23:42:48.808Z,-6.33
2022-12-17T23:44:50.520Z,-6.35
2022-12-17T23:46:52.501Z,-6.35
2022-12-17T23:48:54.436Z,-6.37
2022-12-17T23:50:57.111Z,-6.39
2022-12-17T23:52:58.842Z,-6.38
2022-12-17T23:55:00.481Z,-6.41
2022-12-17T23:57:02.200Z,-6.42
2022-12-17T23:59:04.289Z,-6.43
